| time (UTC) | temp F | wind direction | speed knots | gust knots | rain 1hr in | rain 24hr in | rain mn in | humidity % | barometer mb |
| 20260510193757 | 91 | 240 | 1.7 | 2.6 | 0.00 | 0.00 | 0.00 | 54 | 1014.9 |
| 20260510193252 | 92 | 261 | 1.7 | 2.6 | 0.00 | 0.00 | 0.00 | 53 | 1015.2 |
| 20260510192747 | 91 | 175 | 0.9 | 0.9 | 0.00 | 0.00 | 0.00 | 54 | 1015.0 |
| 20260510192243 | 91 | 198 | 3.5 | 3.5 | 0.00 | 0.00 | 0.00 | 52 | 1015.3 |
| 20260510191740 | 91 | 20 | 0.9 | 0.9 | 0.00 | 0.00 | 0.00 | 55 | 1015.3 |
| 20260510191236 | 91 | 139 | 0.9 | 1.7 | 0.00 | 0.00 | 0.00 | 55 | 1015.3 |
| 20260510190734 | 91 | 238 | 1.7 | 1.7 | 0.00 | 0.00 | 0.00 | 54 | 1015.0 |
| 20260510190230 | 92 | 182 | 1.7 | 2.6 | 0.00 | 0.00 | 0.00 | 52 | 1015.0 |
| 20260510185727 | 92 | 317 | 1.7 | 1.7 | 0.00 | 0.00 | 0.00 | 51 | 1014.9 |
| 20260510185225 | 91 | 301 | 3.5 | 5.2 | 0.00 | 0.00 | 0.00 | 53 | 1015.1 |
| 20260510184721 | 91 | 53 | 2.6 | 3.5 | 0.00 | 0.00 | 0.00 | 51 | 1015.4 |
| 20260510184218 | 92 | 321 | 3.5 | 5.2 | 0.00 | 0.00 | 0.00 | 51 | 1015.0 |
| 20260510183714 | 93 | 211 | 1.7 | 2.6 | 0.00 | 0.00 | 0.00 | 50 | 1015.0 |
| 20260510183208 | 93 | 89 | 2.6 | 3.5 | 0.00 | 0.00 | 0.00 | 49 | 1015.0 |
| 20260510182705 | 94 | 171 | 2.6 | 3.5 | 0.00 | 0.00 | 0.00 | 48 | 1015.3 |
| 20260510182200 | 94 | 243 | 0.9 | 1.7 | 0.00 | 0.00 | 0.00 | 49 | 1015.2 |
| 20260510181658 | 94 | 226 | 0.9 | 1.7 | 0.00 | 0.00 | 0.00 | 48 | 1015.3 |
| 20260510181154 | 94 | 206 | 3.5 | 5.2 | 0.00 | 0.00 | 0.00 | 51 | 1015.2 |
| 20260510180650 | 94 | 266 | 2.6 | 3.5 | 0.00 | 0.00 | 0.00 | 49 | 1015.1 |
| 20260510180148 | 94 | 341 | 2.6 | 2.6 | 0.00 | 0.00 | 0.00 | 51 | 1015.2 |
| 20260510175644 | 94 | 121 | 0.9 | 1.7 | 0.00 | 0.00 | 0.00 | 49 | 1015.0 |
| 20260510175140 | 94 | 181 | 0.9 | 0.9 | 0.00 | 0.00 | 0.00 | 49 | 1015.2 |
| 20260510174638 | 94 | 82 | 4.3 | 7.0 | 0.00 | 0.00 | 0.00 | 48 | 1014.9 |
| 20260510174135 | 94 | 251 | 1.7 | 1.7 | 0.00 | 0.00 | 0.00 | 48 | 1015.2 |
| 20260510173631 | 93 | 309 | 2.6 | 5.2 | 0.00 | 0.00 | 0.00 | 49 | 1015.3 |
| 20260510173127 | 94 | 151 | 1.7 | 3.5 | 0.00 | 0.00 | 0.00 | 48 | 1015.2 |
| 20260510172622 | 93 | 56 | 1.7 | 3.5 | 0.00 | 0.00 | 0.00 | 49 | 1015.1 |
| 20260510172119 | 92 | 239 | 2.6 | 2.6 | 0.00 | 0.00 | 0.00 | 51 | 1015.4 |
| 20260510171616 | 93 | 49 | 0.9 | 0.9 | 0.00 | 0.00 | 0.00 | 51 | 1015.4 |
| 20260510171114 | 92 | 34 | 1.7 | 5.2 | 0.00 | 0.00 | 0.00 | 51 | 1015.4 |
| 20260510170610 | 90 | 306 | 1.7 | 3.5 | 0.00 | 0.00 | 0.00 | 54 | 1015.5 |
| 20260510170106 | 89 | 143 | 0.9 | 1.7 | 0.00 | 0.00 | 0.00 | 57 | 1015.8 |
| 20260510165602 | 90 | 201 | 0.0 | 0.0 | 0.00 | 0.00 | 0.00 | 58 | 1016.0 |
| 20260510165058 | 91 | 146 | 1.7 | 2.6 | 0.00 | 0.00 | 0.00 | 56 | 1015.9 |
| 20260510164556 | 91 | 155 | 3.5 | 5.2 | 0.00 | 0.00 | 0.00 | 56 | 1015.8 |
| 20260510164052 | 90 | 202 | 1.7 | 1.7 | 0.00 | 0.00 | 0.00 | 60 | 1016.1 |
| 20260510163547 | 89 | 332 | 0.9 | 1.7 | 0.00 | 0.00 | 0.00 | 60 | 1016.1 |
| 20260510163044 | 89 | 216 | 0.9 | 1.7 | 0.00 | 0.00 | 0.00 | 62 | 1016.2 |
| 20260510162539 | 87 | 254 | 0.0 | 0.0 | 0.00 | 0.00 | 0.00 | 64 | 1016.2 |
| 20260510162036 | 87 | 225 | 0.9 | 0.9 | 0.00 | 0.00 | 0.00 | 66 | 1016.2 |
| 20260510161532 | 88 | 249 | 0.9 | 1.7 | 0.00 | 0.00 | 0.00 | 63 | 1016.4 |
| 20260510161029 | 88 | 255 | 0.9 | 1.7 | 0.00 | 0.00 | 0.00 | 61 | 1016.3 |
| 20260510160526 | 90 | 263 | 1.7 | 1.7 | 0.00 | 0.00 | 0.00 | 60 | 1016.3 |
| 20260510160025 | 89 | 346 | 1.7 | 2.6 | 0.00 | 0.00 | 0.00 | 61 | 1016.3 |
| 20260510155522 | 89 | 216 | 0.9 | 0.9 | 0.00 | 0.00 | 0.00 | 62 | 1016.2 |
| 20260510155018 | 89 | 230 | 1.7 | 1.7 | 0.00 | 0.00 | 0.00 | 64 | 1016.2 |
| 20260510154514 | 89 | 265 | 0.9 | 0.9 | 0.00 | 0.00 | 0.00 | 62 | 1016.3 |
| 20260510154015 | 88 | 21 | 1.7 | 1.7 | 0.00 | 0.00 | 0.00 | 64 | 1016.3 |
| 20260510153510 | 87 | 209 | 1.7 | 1.7 | 0.00 | 0.00 | 0.00 | 63 | 1016.4 |
| 20260510153007 | 87 | 215 | 1.7 | 2.6 | 0.00 | 0.00 | 0.00 | 67 | 1016.3 |
| 20260510152504 | 87 | 219 | 1.7 | 1.7 | 0.00 | 0.00 | 0.00 | 67 | 1016.4 |
| 20260510152000 | 86 | 156 | 2.6 | 2.6 | 0.00 | 0.00 | 0.00 | 67 | 1016.3 |
| 20260510151457 | 85 | 175 | 0.9 | 1.7 | 0.00 | 0.00 | 0.00 | 70 | 1016.3 |
| 20260510150954 | 85 | 143 | 1.7 | 2.6 | 0.00 | 0.00 | 0.00 | 71 | 1016.3 |
| 20260510150450 | 84 | 139 | 1.7 | 1.7 | 0.00 | 0.00 | 0.00 | 72 | 1016.2 |
| 20260510145946 | 84 | 181 | 3.5 | 3.5 | 0.00 | 0.00 | 0.00 | 71 | 1016.3 |
| 20260510145442 | 84 | 188 | 2.6 | 3.5 | 0.00 | 0.00 | 0.00 | 73 | 1016.4 |
| 20260510144939 | 84 | 239 | 1.7 | 2.6 | 0.00 | 0.00 | 0.00 | 73 | 1016.4 |
| 20260510144436 | 84 | 214 | 2.6 | 5.2 | 0.00 | 0.00 | 0.00 | 73 | 1016.3 |
| 20260510143931 | 84 | 259 | 1.7 | 3.5 | 0.00 | 0.00 | 0.00 | 73 | 1016.4 |
| 20260510143427 | 83 | 152 | 1.7 | 1.7 | 0.00 | 0.00 | 0.00 | 73 | 1016.4 |
| 20260510142924 | 83 | 160 | 3.5 | 3.5 | 0.00 | 0.00 | 0.00 | 73 | 1016.3 |
| 20260510142421 | 83 | 182 | 1.7 | 2.6 | 0.00 | 0.00 | 0.00 | 73 | 1016.2 |
| 20260510141917 | 83 | 130 | 3.5 | 5.2 | 0.00 | 0.00 | 0.00 | 73 | 1016.1 |
| 20260510141414 | 83 | 141 | 0.0 | 0.9 | 0.00 | 0.00 | 0.00 | 74 | 1016.1 |
| 20260510140912 | 82 | 199 | 1.7 | 1.7 | 0.00 | 0.00 | 0.00 | 74 | 1016.2 |
| 20260510140408 | 82 | 181 | 2.6 | 2.6 | 0.00 | 0.00 | 0.00 | 76 | 1016.2 |
| 20260510135907 | 82 | 164 | 1.7 | 1.7 | 0.00 | 0.00 | 0.00 | 76 | 1016.1 |
| 20260510135403 | 81 | 163 | 2.6 | 2.6 | 0.00 | 0.00 | 0.00 | 76 | 1016.1 |
| 20260510134900 | 81 | 123 | 1.7 | 1.7 | 0.00 | 0.00 | 0.00 | 76 | 1016.3 |
| 20260510134357 | 81 | 178 | 0.9 | 0.9 | 0.00 | 0.00 | 0.00 | 77 | 1015.9 |
| 20260510133853 | 80 | 126 | 1.7 | 1.7 | 0.00 | 0.00 | 0.00 | 78 | 1016.0 |
| 20260510133350 | 80 | 169 | 1.7 | 2.6 | 0.00 | 0.00 | 0.00 | 79 | 1015.9 |
| 20260510132845 | 80 | 185 | 0.9 | 0.9 | 0.00 | 0.00 | 0.00 | 79 | 1015.9 |
| 20260510132343 | 79 | 199 | 0.9 | 0.9 | 0.00 | 0.00 | 0.00 | 81 | 1016.0 |
| 20260510131840 | 79 | 199 | 0.0 | 0.9 | 0.00 | 0.00 | 0.00 | 82 | 1016.0 |
| 20260510131338 | 79 | 191 | 1.7 | 1.7 | 0.00 | 0.00 | 0.00 | 83 | 1015.7 |
| 20260510130834 | 78 | 192 | 1.7 | 1.7 | 0.00 | 0.00 | 0.00 | 85 | 1015.8 |
| 20260510130331 | 78 | 209 | 0.9 | 0.9 | 0.00 | 0.00 | 0.00 | 86 | 1015.8 |
| 20260510125827 | 78 | 224 | 0.9 | 0.9 | 0.00 | 0.00 | 0.00 | 86 | 1016.0 |
| 20260510125324 | 77 | 244 | 0.0 | 0.0 | 0.00 | 0.00 | 0.00 | 87 | 1015.8 |
| 20260510124821 | 77 | 191 | 0.0 | 0.9 | 0.00 | 0.00 | 0.00 | 87 | 1015.9 |
| 20260510124318 | 77 | 206 | 0.0 | 0.9 | 0.00 | 0.00 | 0.00 | 87 | 1015.8 |
| 20260510123813 | 77 | 227 | 0.0 | 0.9 | 0.00 | 0.00 | 0.00 | 87 | 1015.8 |
| 20260510123309 | 77 | 225 | 0.0 | 0.0 | 0.00 | 0.00 | 0.00 | 88 | 1015.8 |
| 20260510122805 | 76 | 204 | 0.0 | 0.0 | 0.00 | 0.00 | 0.00 | 90 | 1015.6 |
| 20260510122301 | 76 | 194 | 0.0 | 0.9 | 0.00 | 0.00 | 0.00 | 91 | 1015.6 |
| 20260510121758 | 75 | 174 | 0.0 | 0.9 | 0.00 | 0.00 | 0.00 | 93 | 1015.6 |
| 20260510121256 | 75 | 174 | 0.9 | 0.9 | 0.00 | 0.00 | 0.00 | 96 | 1015.6 |
| 20260510120753 | 73 | 196 | 0.9 | 0.9 | 0.00 | 0.00 | 0.00 | 97 | 1015.3 |
| 20260510120249 | 73 | 230 | 0.0 | 0.0 | 0.00 | 0.00 | 0.00 | 97 | 1015.3 |
| 20260510115745 | 73 | 196 | 0.9 | 1.7 | 0.00 | 0.00 | 0.00 | 97 | 1015.2 |
| 20260510115243 | 72 | 232 | 0.0 | 0.0 | 0.00 | 0.00 | 0.00 | 98 | 1015.2 |
| 20260510114738 | 72 | 239 | 0.0 | 0.0 | 0.00 | 0.00 | 0.00 | 98 | 1015.1 |
| 20260510114236 | 71 | 237 | 0.0 | 0.0 | 0.00 | 0.00 | 0.00 | 98 | 1015.3 |
| 20260510113731 | 71 | 229 | 0.0 | 0.0 | 0.00 | 0.00 | 0.00 | 98 | 1014.9 |
| 20260510113228 | 71 | 227 | 0.0 | 0.0 | 0.00 | 0.00 | 0.00 | 98 | 1014.7 |
| 20260510112724 | 71 | 227 | 0.0 | 0.0 | 0.00 | 0.00 | 0.00 | 98 | 1014.7 |
| 20260510112221 | 71 | 227 | 0.0 | 0.0 | 0.00 | 0.00 | 0.00 | 98 | 1014.6 |
| 20260510111717 | 70 | 227 | 0.0 | 0.0 | 0.00 | 0.00 | 0.00 | 98 | 1014.3 |
| 20260510111215 | 70 | 227 | 0.0 | 0.0 | 0.00 | 0.00 | 0.00 | 97 | 1014.6 |
| 20260510110714 | 70 | 226 | 0.0 | 0.0 | 0.00 | 0.00 | 0.00 | 98 | 1014.3 |
| 20260510110212 | 70 | 210 | 0.0 | 0.0 | 0.00 | 0.00 | 0.00 | 97 | 1014.2 |
| 20260510105712 | 70 | 210 | 0.0 | 0.0 | 0.00 | 0.00 | 0.00 | 97 | 1014.2 |
| 20260510105206 | 70 | 210 | 0.0 | 0.0 | 0.00 | 0.00 | 0.00 | 97 | 1014.1 |
| 20260510104703 | 70 | 210 | 0.0 | 0.0 | 0.00 | 0.00 | 0.00 | 97 | 1014.0 |
| 20260510104200 | 70 | 210 | 0.0 | 0.0 | 0.00 | 0.00 | 0.00 | 97 | 1013.8 |
| 20260510103657 | 71 | 210 | 0.0 | 0.0 | 0.00 | 0.00 | 0.00 | 97 | 1013.9 |
| 20260510103154 | 71 | 210 | 0.0 | 0.0 | 0.00 | 0.00 | 0.00 | 97 | 1013.9 |
| 20260510102654 | 71 | 210 | 0.0 | 0.0 | 0.00 | 0.00 | 0.00 | 97 | 1014.0 |
| 20260510102150 | 71 | 195 | 0.0 | 0.0 | 0.00 | 0.00 | 0.00 | 97 | 1013.8 |
| 20260510101648 | 71 | 197 | 0.0 | 0.0 | 0.00 | 0.00 | 0.00 | 97 | 1013.7 |
| 20260510101146 | 71 | 203 | 0.0 | 0.0 | 0.00 | 0.00 | 0.00 | 97 | 1013.6 |
| 20260510100641 | 71 | 208 | 0.0 | 0.0 | 0.00 | 0.00 | 0.00 | 97 | 1013.4 |
| 20260510100139 | 71 | 205 | 0.0 | 0.0 | 0.00 | 0.00 | 0.00 | 97 | 1013.4 |
| 20260510095635 | 71 | 204 | 0.0 | 0.0 | 0.00 | 0.00 | 0.00 | 97 | 1013.4 |
| 20260510095130 | 71 | 211 | 0.0 | 0.0 | 0.00 | 0.00 | 0.00 | 97 | 1013.5 |
| 20260510094629 | 71 | 194 | 0.0 | 0.0 | 0.00 | 0.00 | 0.00 | 97 | 1013.2 |
| 20260510094125 | 71 | 204 | 0.0 | 0.0 | 0.00 | 0.00 | 0.00 | 97 | 1013.6 |
| 20260510093621 | 71 | 208 | 0.0 | 0.0 | 0.00 | 0.00 | 0.00 | 97 | 1013.3 |
| 20260510093118 | 71 | 228 | 0.0 | 0.0 | 0.00 | 0.00 | 0.00 | 97 | 1013.4 |
| 20260510092615 | 71 | 226 | 0.0 | 0.0 | 0.00 | 0.00 | 0.00 | 97 | 1013.4 |
| 20260510092115 | 71 | 213 | 0.0 | 0.0 | 0.00 | 0.00 | 0.00 | 97 | 1013.3 |
| 20260510091611 | 71 | 227 | 0.0 | 0.0 | 0.00 | 0.00 | 0.00 | 97 | 1013.2 |
| 20260510091108 | 71 | 214 | 0.0 | 0.0 | 0.00 | 0.00 | 0.00 | 97 | 1013.2 |
| 20260510090605 | 71 | 214 | 0.0 | 0.0 | 0.00 | 0.00 | 0.00 | 97 | 1013.1 |
| 20260510090100 | 71 | 208 | 0.0 | 0.0 | 0.00 | 0.00 | 0.00 | 97 | 1013.1 |
| 20260510085555 | 71 | 209 | 0.0 | 0.0 | 0.00 | 0.00 | 0.00 | 97 | 1013.1 |
| 20260510085051 | 71 | 213 | 0.0 | 0.0 | 0.00 | 0.00 | 0.00 | 97 | 1013.2 |
| 20260510084548 | 71 | 216 | 0.0 | 0.0 | 0.00 | 0.00 | 0.00 | 97 | 1012.8 |
| 20260510084045 | 71 | 186 | 0.9 | 0.9 | 0.00 | 0.00 | 0.00 | 97 | 1012.8 |
| 20260510083542 | 71 | 191 | 0.0 | 0.0 | 0.00 | 0.00 | 0.00 | 97 | 1012.8 |
| 20260510083038 | 71 | 185 | 0.9 | 0.9 | 0.00 | 0.00 | 0.00 | 97 | 1012.8 |
| 20260510082535 | 71 | 216 | 0.0 | 0.0 | 0.00 | 0.00 | 0.00 | 97 | 1012.6 |
| 20260510082030 | 71 | 207 | 0.0 | 0.0 | 0.00 | 0.00 | 0.00 | 97 | 1012.8 |
| 20260510081525 | 71 | 208 | 0.0 | 0.0 | 0.00 | 0.00 | 0.00 | 97 | 1012.7 |
| 20260510081021 | 71 | 211 | 0.0 | 0.0 | 0.00 | 0.00 | 0.00 | 97 | 1012.7 |
| 20260510080520 | 71 | 211 | 0.0 | 0.0 | 0.00 | 0.00 | 0.00 | 97 | 1012.7 |
| 20260510080017 | 71 | 202 | 0.0 | 0.0 | 0.00 | 0.00 | 0.00 | 97 | 1012.7 |
| 20260510075515 | 71 | 203 | 0.0 | 0.0 | 0.00 | 0.00 | 0.00 | 97 | 1012.9 |
| 20260510075012 | 71 | 206 | 0.0 | 0.0 | 0.00 | 0.00 | 0.00 | 97 | 1013.0 |
| 20260510074509 | 71 | 200 | 0.0 | 0.0 | 0.00 | 0.00 | 0.00 | 97 | 1012.9 |
| 20260510074004 | 71 | 201 | 0.0 | 0.0 | 0.00 | 0.00 | 0.00 | 97 | 1013.1 |
| 20260510073501 | 71 | 206 | 0.0 | 0.0 | 0.00 | 0.00 | 0.00 | 96 | 1012.8 |
| 20260510072957 | 71 | 209 | 0.0 | 0.0 | 0.00 | 0.00 | 0.00 | 96 | 1012.9 |
| 20260510072454 | 70 | 210 | 0.0 | 0.0 | 0.00 | 0.00 | 0.00 | 96 | 1013.1 |
| 20260510071949 | 70 | 210 | 0.0 | 0.0 | 0.00 | 0.00 | 0.00 | 96 | 1013.1 |
| 20260510071446 | 70 | 210 | 0.0 | 0.0 | 0.00 | 0.00 | 0.00 | 96 | 1013.1 |
| 20260510070944 | 71 | 210 | 0.0 | 0.0 | 0.00 | 0.00 | 0.00 | 96 | 1013.1 |
| 20260510070441 | 71 | 210 | 0.0 | 0.0 | 0.00 | 0.00 | 0.00 | 96 | 1013.3 |
| 20260510065937 | 71 | 210 | 0.0 | 0.0 | 0.00 | 0.00 | 0.00 | 96 | 1013.3 |
| 20260510065434 | 71 | 210 | 0.0 | 0.0 | 0.00 | 0.00 | 0.00 | 96 | 1013.4 |
| 20260510064930 | 71 | 208 | 0.0 | 0.0 | 0.00 | 0.00 | 0.00 | 96 | 1013.3 |
| 20260510064428 | 70 | 212 | 0.0 | 0.0 | 0.00 | 0.00 | 0.00 | 96 | 1013.2 |
| 20260510063924 | 70 | 229 | 0.0 | 0.0 | 0.00 | 0.00 | 0.00 | 95 | 1013.3 |
| 20260510063420 | 70 | 227 | 0.0 | 0.0 | 0.00 | 0.00 | 0.00 | 95 | 1013.3 |
| 20260510062918 | 70 | 227 | 0.0 | 0.0 | 0.00 | 0.00 | 0.00 | 95 | 1013.4 |
| 20260510062413 | 70 | 228 | 0.0 | 0.0 | 0.00 | 0.00 | 0.00 | 95 | 1013.5 |
| 20260510061909 | 70 | 228 | 0.0 | 0.0 | 0.00 | 0.00 | 0.00 | 95 | 1013.7 |
| 20260510061406 | 70 | 228 | 0.0 | 0.0 | 0.00 | 0.00 | 0.00 | 95 | 1013.9 |
| 20260510060902 | 70 | 228 | 0.0 | 0.0 | 0.00 | 0.00 | 0.00 | 95 | 1013.8 |
| 20260510060359 | 70 | 228 | 0.0 | 0.0 | 0.00 | 0.00 | 0.00 | 95 | 1013.9 |
| 20260510055855 | 70 | 228 | 0.0 | 0.0 | 0.00 | 0.00 | 0.00 | 95 | 1014.1 |
| 20260510055355 | 70 | 228 | 0.0 | 0.0 | 0.00 | 0.00 | 0.00 | 94 | 1014.1 |
| 20260510054854 | 70 | 228 | 0.0 | 0.0 | 0.00 | 0.00 | 0.00 | 94 | 1014.1 |
| 20260510054350 | 70 | 228 | 0.0 | 0.0 | 0.00 | 0.00 | 0.00 | 94 | 1014.3 |
| 20260510053845 | 71 | 228 | 0.0 | 0.0 | 0.00 | 0.00 | 0.00 | 94 | 1014.3 |
| 20260510053340 | 71 | 228 | 0.0 | 0.0 | 0.00 | 0.00 | 0.00 | 94 | 1014.5 |
| 20260510052837 | 71 | 228 | 0.0 | 0.0 | 0.00 | 0.00 | 0.00 | 94 | 1014.3 |
| 20260510052333 | 71 | 228 | 0.0 | 0.0 | 0.00 | 0.00 | 0.00 | 93 | 1014.4 |
| 20260510051829 | 71 | 228 | 0.0 | 0.0 | 0.00 | 0.00 | 0.00 | 93 | 1014.4 |
| 20260510051326 | 71 | 228 | 0.0 | 0.0 | 0.00 | 0.00 | 0.00 | 93 | 1014.5 |
| 20260510050823 | 71 | 228 | 0.0 | 0.0 | 0.00 | 0.00 | 0.00 | 93 | 1014.4 |
| 20260510050320 | 71 | 228 | 0.0 | 0.0 | 0.00 | 0.00 | 0.00 | 92 | 1014.5 |
| 20260510045817 | 71 | 228 | 0.0 | 0.0 | 0.00 | 0.00 | 0.00 | 92 | 1014.5 |
| 20260510045313 | 72 | 228 | 0.0 | 0.0 | 0.00 | 0.00 | 0.00 | 92 | 1014.4 |
| 20260510044811 | 72 | 228 | 0.0 | 0.0 | 0.00 | 0.00 | 0.00 | 92 | 1014.5 |
| 20260510044308 | 72 | 228 | 0.0 | 0.0 | 0.00 | 0.00 | 0.00 | 91 | 1014.7 |
| 20260510043804 | 72 | 228 | 0.0 | 0.0 | 0.00 | 0.00 | 0.00 | 91 | 1014.8 |
| 20260510043255 | 73 | 228 | 0.0 | 0.0 | 0.00 | 0.00 | 0.00 | 91 | 1014.8 |
| 20260510042752 | 73 | 229 | 0.0 | 0.0 | 0.00 | 0.00 | 0.00 | 91 | 1014.9 |
| 20260510042248 | 73 | 229 | 0.0 | 0.0 | 0.00 | 0.00 | 0.00 | 90 | 1014.8 |
| 20260510041744 | 73 | 230 | 0.0 | 0.0 | 0.00 | 0.00 | 0.00 | 90 | 1015.1 |
| 20260510041241 | 73 | 230 | 0.0 | 0.0 | 0.00 | 0.00 | 0.00 | 90 | 1015.0 |
| 20260510040739 | 73 | 229 | 0.0 | 0.0 | 0.00 | 0.00 | 0.00 | 90 | 1015.2 |
| 20260510040236 | 73 | 230 | 0.0 | 0.0 | 0.00 | 0.00 | 0.00 | 89 | 1015.0 |
| 20260510035730 | 73 | 230 | 0.0 | 0.0 | 0.00 | 0.00 | 0.00 | 89 | 1015.0 |
| 20260510035227 | 73 | 229 | 0.0 | 0.0 | 0.00 | 0.00 | 0.00 | 89 | 1014.9 |
| 20260510034722 | 73 | 230 | 0.0 | 0.0 | 0.00 | 0.00 | 0.00 | 88 | 1015.0 |
| 20260510034222 | 73 | 230 | 0.0 | 0.0 | 0.00 | 0.00 | 0.00 | 88 | 1014.9 |
| 20260510033717 | 74 | 230 | 0.0 | 0.0 | 0.00 | 0.00 | 0.00 | 87 | 1014.9 |
| 20260510033215 | 74 | 212 | 0.0 | 0.0 | 0.00 | 0.00 | 0.00 | 87 | 1014.8 |
| 20260510032711 | 74 | 211 | 0.0 | 0.0 | 0.00 | 0.00 | 0.00 | 85 | 1014.8 |
| 20260510032207 | 74 | 212 | 0.0 | 0.0 | 0.00 | 0.00 | 0.00 | 85 | 1014.8 |
| 20260510031702 | 74 | 211 | 0.0 | 0.0 | 0.00 | 0.00 | 0.00 | 84 | 1014.8 |
| 20260510031159 | 74 | 271 | 0.0 | 0.9 | 0.00 | 0.00 | 0.00 | 84 | 1014.9 |
| 20260510030658 | 74 | 262 | 0.0 | 0.0 | 0.00 | 0.00 | 0.00 | 84 | 1015.1 |
| 20260510030156 | 74 | 262 | 0.0 | 0.0 | 0.00 | 0.00 | 0.00 | 84 | 1014.9 |
| 20260510025654 | 74 | 262 | 0.0 | 0.0 | 0.00 | 0.00 | 0.00 | 84 | 1014.8 |
| 20260510025150 | 74 | 278 | 0.9 | 0.9 | 0.00 | 0.00 | 0.00 | 85 | 1014.6 |
| 20260510024648 | 74 | 299 | 0.0 | 0.9 | 0.00 | 0.00 | 0.00 | 85 | 1014.6 |
| 20260510024144 | 74 | 235 | 0.0 | 0.0 | 0.00 | 0.00 | 0.00 | 85 | 1014.6 |
| 20260510023639 | 74 | 235 | 0.0 | 0.0 | 0.00 | 0.00 | 0.00 | 84 | 1014.4 |
| 20260510023137 | 74 | 235 | 0.0 | 0.0 | 0.00 | 0.00 | 0.00 | 84 | 1014.4 |
| 20260510022631 | 74 | 235 | 0.0 | 0.0 | 0.00 | 0.00 | 0.00 | 84 | 1014.0 |
| 20260510022126 | 74 | 234 | 0.0 | 0.0 | 0.00 | 0.00 | 0.00 | 84 | 1014.2 |
| 20260510021622 | 74 | 234 | 0.0 | 0.0 | 0.00 | 0.00 | 0.00 | 84 | 1014.3 |
| 20260510021120 | 74 | 233 | 0.0 | 0.0 | 0.00 | 0.00 | 0.00 | 84 | 1014.1 |
| 20260510020613 | 74 | 233 | 0.0 | 0.0 | 0.00 | 0.00 | 0.00 | 84 | 1014.4 |
| 20260510020109 | 74 | 234 | 0.0 | 0.0 | 0.00 | 0.00 | 0.00 | 84 | 1014.4 |
| 20260510015605 | 74 | 234 | 0.0 | 0.0 | 0.00 | 0.00 | 0.00 | 84 | 1014.3 |
| 20260510015102 | 74 | 234 | 0.0 | 0.0 | 0.00 | 0.00 | 0.00 | 83 | 1014.1 |
| 20260510014557 | 75 | 234 | 0.0 | 0.0 | 0.00 | 0.00 | 0.00 | 83 | 1014.0 |
| 20260510014055 | 75 | 234 | 0.0 | 0.0 | 0.00 | 0.00 | 0.00 | 83 | 1014.0 |
| 20260510013550 | 75 | 234 | 0.0 | 0.0 | 0.00 | 0.00 | 0.00 | 82 | 1013.9 |
| 20260510013046 | 75 | 234 | 0.0 | 0.0 | 0.00 | 0.00 | 0.00 | 82 | 1014.0 |
| 20260510012545 | 75 | 234 | 0.0 | 0.0 | 0.00 | 0.00 | 0.00 | 81 | 1013.9 |
| 20260510012042 | 75 | 233 | 0.0 | 0.0 | 0.00 | 0.00 | 0.00 | 81 | 1013.7 |
| 20260510011541 | 76 | 234 | 0.0 | 0.0 | 0.00 | 0.00 | 0.00 | 80 | 1013.8 |
| 20260510011037 | 76 | 235 | 0.0 | 0.0 | 0.00 | 0.00 | 0.00 | 80 | 1013.8 |
| 20260510010534 | 76 | 189 | 0.0 | 0.0 | 0.00 | 0.00 | 0.00 | 80 | 1013.7 |
| 20260510010031 | 76 | 211 | 0.0 | 0.0 | 0.00 | 0.00 | 0.00 | 79 | 1013.6 |
| 20260510005527 | 76 | 95 | 0.9 | 0.9 | 0.00 | 0.00 | 0.00 | 79 | 1013.6 |
| 20260510005025 | 76 | 193 | 0.0 | 0.0 | 0.00 | 0.00 | 0.00 | 79 | 1013.6 |
| 20260510004522 | 76 | 253 | 0.0 | 0.9 | 0.00 | 0.00 | 0.00 | 79 | 1013.7 |
| 20260510004021 | 76 | 257 | 0.0 | 0.0 | 0.00 | 0.00 | 0.00 | 79 | 1013.6 |
| 20260510003517 | 76 | 259 | 0.0 | 0.0 | 0.00 | 0.00 | 0.00 | 78 | 1013.3 |
| 20260510003012 | 76 | 288 | 0.9 | 0.9 | 0.00 | 0.00 | 0.00 | 78 | 1013.3 |
| 20260510002508 | 77 | 262 | 0.0 | 0.0 | 0.00 | 0.00 | 0.00 | 78 | 1013.2 |
| 20260510002005 | 77 | 266 | 0.0 | 0.0 | 0.00 | 0.00 | 0.00 | 77 | 1013.1 |
| 20260510001503 | 77 | 269 | 0.0 | 0.0 | 0.00 | 0.00 | 0.00 | 77 | 1013.1 |
| 20260510001000 | 77 | 294 | 0.9 | 0.9 | 0.00 | 0.00 | 0.00 | 77 | 1012.9 |
| 20260510000456 | 78 | 322 | 0.9 | 1.7 | 0.00 | 0.00 | 0.00 | 76 | 1012.9 |
| 20260509235952 | 78 | 298 | 0.9 | 1.7 | 0.00 | 0.00 | 0.00 | 76 | 1012.8 |
| 20260509235449 | 79 | 288 | 2.6 | 2.6 | 0.00 | 0.00 | 0.00 | 75 | 1012.9 |
| 20260509234945 | 80 | 335 | 1.7 | 1.7 | 0.00 | 0.00 | 0.00 | 73 | 1012.9 |
| 20260509234442 | 81 | 353 | 2.6 | 2.6 | 0.00 | 0.00 | 0.00 | 72 | 1012.9 |
| 20260509233940 | 81 | 270 | 0.9 | 0.9 | 0.00 | 0.00 | 0.00 | 70 | 1012.7 |
| 20260509233438 | 82 | 244 | 0.0 | 0.0 | 0.00 | 0.00 | 0.00 | 68 | 1012.7 |
| 20260509232933 | 82 | 319 | 1.7 | 2.6 | 0.00 | 0.00 | 0.00 | 67 | 1012.6 |
| 20260509232431 | 82 | 271 | 0.9 | 0.9 | 0.00 | 0.00 | 0.00 | 66 | 1012.5 |
| 20260509231927 | 82 | 307 | 0.9 | 0.9 | 0.00 | 0.00 | 0.00 | 65 | 1012.4 |
| 20260509231424 | 83 | 317 | 0.0 | 0.9 | 0.00 | 0.00 | 0.00 | 65 | 1012.6 |
| 20260509230922 | 83 | 236 | 0.0 | 0.9 | 0.00 | 0.00 | 0.00 | 64 | 1012.4 |
| 20260509230418 | 83 | 349 | 1.7 | 1.7 | 0.00 | 0.00 | 0.00 | 64 | 1012.6 |
| 20260509225914 | 84 | 311 | 2.6 | 2.6 | 0.00 | 0.00 | 0.00 | 63 | 1012.4 |
| 20260509225411 | 84 | 355 | 2.6 | 2.6 | 0.00 | 0.00 | 0.00 | 64 | 1012.4 |
| 20260509224907 | 84 | 277 | 0.9 | 0.9 | 0.00 | 0.00 | 0.00 | 63 | 1012.4 |
| 20260509224403 | 85 | 107 | 0.9 | 1.7 | 0.00 | 0.00 | 0.00 | 63 | 1012.3 |
| 20260509223900 | 85 | 205 | 1.7 | 1.7 | 0.00 | 0.00 | 0.00 | 60 | 1012.3 |
| 20260509223357 | 86 | 247 | 0.0 | 0.0 | 0.00 | 0.00 | 0.00 | 59 | 1012.2 |
| 20260509222854 | 86 | 216 | 0.9 | 0.9 | 0.00 | 0.00 | 0.00 | 58 | 1012.0 |
| 20260509222354 | 86 | 253 | 0.0 | 0.0 | 0.00 | 0.00 | 0.00 | 57 | 1012.0 |
| 20260509221850 | 87 | 220 | 0.0 | 0.0 | 0.00 | 0.00 | 0.00 | 56 | 1011.8 |
| 20260509221348 | 87 | 153 | 0.0 | 0.9 | 0.00 | 0.00 | 0.00 | 55 | 1012.0 |
| 20260509220843 | 87 | 300 | 1.7 | 1.7 | 0.00 | 0.00 | 0.00 | 54 | 1011.9 |
| 20260509220339 | 87 | 232 | 0.9 | 0.9 | 0.00 | 0.00 | 0.00 | 54 | 1011.8 |
| 20260509215835 | 88 | 215 | 0.0 | 0.0 | 0.00 | 0.00 | 0.00 | 54 | 1011.6 |
| 20260509215332 | 88 | 190 | 0.9 | 1.7 | 0.00 | 0.00 | 0.00 | 53 | 1011.5 |
| 20260509214829 | 89 | 162 | 2.6 | 3.5 | 0.00 | 0.00 | 0.00 | 51 | 1011.5 |
| 20260509214326 | 89 | 7 | 1.7 | 1.7 | 0.00 | 0.00 | 0.00 | 51 | 1011.4 |
| 20260509213823 | 90 | 231 | 0.9 | 1.7 | 0.00 | 0.00 | 0.00 | 51 | 1011.5 |
| 20260509213318 | 90 | 176 | 0.0 | 0.9 | 0.00 | 0.00 | 0.00 | 52 | 1011.3 |
| 20260509212816 | 91 | 207 | 0.9 | 0.9 | 0.00 | 0.00 | 0.00 | 50 | 1011.2 |
| 20260509212313 | 91 | 248 | 0.0 | 0.9 | 0.00 | 0.00 | 0.00 | 51 | 1011.0 |
| 20260509211808 | 91 | 33 | 1.7 | 1.7 | 0.00 | 0.00 | 0.00 | 50 | 1011.1 |
| 20260509211304 | 90 | 302 | 1.7 | 1.7 | 0.00 | 0.00 | 0.00 | 51 | 1011.1 |
| 20260509210801 | 90 | 267 | 0.9 | 0.9 | 0.00 | 0.00 | 0.00 | 53 | 1011.2 |
| 20260509210259 | 91 | 221 | 0.9 | 1.7 | 0.00 | 0.00 | 0.00 | 51 | 1011.2 |
| 20260509205758 | 90 | 237 | 0.9 | 1.7 | 0.00 | 0.00 | 0.00 | 53 | 1011.1 |
| 20260509205253 | 90 | 57 | 0.9 | 0.9 | 0.00 | 0.00 | 0.00 | 52 | 1011.1 |
| 20260509204750 | 90 | 197 | 1.7 | 2.6 | 0.00 | 0.00 | 0.00 | 51 | 1011.2 |
| 20260509204246 | 91 | 231 | 0.9 | 1.7 | 0.00 | 0.00 | 0.00 | 49 | 1011.1 |
| 20260509203742 | 92 | 291 | 0.9 | 0.9 | 0.00 | 0.00 | 0.00 | 49 | 1011.3 |
| 20260509203240 | 92 | 200 | 0.0 | 0.9 | 0.00 | 0.00 | 0.00 | 49 | 1011.1 |
| 20260509202737 | 91 | 300 | 0.9 | 1.7 | 0.00 | 0.00 | 0.00 | 49 | 1011.1 |
| 20260509202233 | 91 | 116 | 1.7 | 2.6 | 0.00 | 0.00 | 0.00 | 51 | 1011.2 |
| 20260509201727 | 91 | 255 | 1.7 | 1.7 | 0.00 | 0.00 | 0.00 | 50 | 1011.1 |
| 20260509201224 | 90 | 212 | 0.9 | 1.7 | 0.00 | 0.00 | 0.00 | 52 | 1011.0 |
| 20260509200720 | 90 | 80 | 3.5 | 5.2 | 0.00 | 0.00 | 0.00 | 50 | 1011.2 |
| 20260509200215 | 90 | 210 | 0.9 | 0.9 | 0.00 | 0.00 | 0.00 | 51 | 1011.3 |
| 20260509195712 | 89 | 246 | 1.7 | 2.6 | 0.00 | 0.00 | 0.00 | 52 | 1011.2 |
| 20260509195207 | 89 | 0 | 0.9 | 1.7 | 0.00 | 0.00 | 0.00 | 52 | 1011.3 |
| 20260509194706 | 90 | 75 | 1.7 | 1.7 | 0.00 | 0.00 | 0.00 | 51 | 1011.5 |
| 20260509194204 | 90 | 60 | 0.9 | 1.7 | 0.00 | 0.00 | 0.00 | 51 | 1011.3 |